createdAt,value
2023-02-26T00:01:24.936Z,60.92
2023-02-26T00:03:53.523Z,60.82
2023-02-26T00:06:20.902Z,60.86
2023-02-26T00:08:47.579Z,60.45
2023-02-26T00:11:14.380Z,60.16
2023-02-26T00:13:44.026Z,60.50
2023-02-26T00:16:35.331Z,60.01
2023-02-26T00:19:05.160Z,59.82
2023-02-26T00:21:33.418Z,59.86
2023-02-26T00:24:00.845Z,60.08
2023-02-26T00:26:29.525Z,59.58
2023-02-26T00:28:57.147Z,59.78
2023-02-26T00:31:27.012Z,60.11
2023-02-26T00:33:55.276Z,60.25
2023-02-26T00:36:24.153Z,60.25
2023-02-26T00:39:29.495Z,59.90
2023-02-26T00:41:56.522Z,59.92
2023-02-26T00:44:23.532Z,59.85
2023-02-26T00:47:13.827Z,59.94
2023-02-26T00:50:01.591Z,59.78
2023-02-26T00:52:39.096Z,59.42
2023-02-26T00:55:05.981Z,59.54
2023-02-26T00:57:32.503Z,59.04
2023-02-26T00:59:59.130Z,59.29
2023-02-26T01:02:26.069Z,59.72
2023-02-26T01:04:52.915Z,58.61
2023-02-26T01:07:24.517Z,59.26
2023-02-26T01:09:51.597Z,59.10
2023-02-26T01:12:18.544Z,58.58
2023-02-26T01:14:47.434Z,59.16
2023-02-26T01:17:20.093Z,59.44
2023-02-26T01:19:55.710Z,59.57
2023-02-26T01:22:33.508Z,59.54
2023-02-26T01:25:04.917Z,59.45
2023-02-26T01:27:32.067Z,59.82
2023-02-26T01:29:59.044Z,59.92
2023-02-26T01:32:43.785Z,60.02
2023-02-26T01:35:28.719Z,60.11
2023-02-26T01:38:14.886Z,60.18
2023-02-26T01:41:12.827Z,60.13
2023-02-26T01:43:51.192Z,60.24
2023-02-26T01:46:51.333Z,60.40
2023-02-26T01:49:19.267Z,60.57
2023-02-26T01:52:07.371Z,60.56
2023-02-26T01:54:37.329Z,60.61
2023-02-26T01:57:09.335Z,60.73
2023-02-26T01:59:43.865Z,60.71
2023-02-26T02:02:13.400Z,60.92
2023-02-26T02:04:40.837Z,60.74
2023-02-26T02:07:07.860Z,60.22
2023-02-26T02:09:35.055Z,60.15
2023-02-26T02:12:04.354Z,60.04
2023-02-26T02:15:12.983Z,60.13
2023-02-26T02:17:48.689Z,59.62
2023-02-26T02:20:57.162Z,59.67
2023-02-26T02:23:43.474Z,58.95
2023-02-26T02:26:16.015Z,59.12
2023-02-26T02:28:54.352Z,59.42
2023-02-26T02:31:29.953Z,59.28
2023-02-26T02:34:23.861Z,59.21
2023-02-26T02:36:59.293Z,59.34
2023-02-26T02:39:42.268Z,59.49
2023-02-26T02:42:23.082Z,59.44
2023-02-26T02:44:57.721Z,59.88
2023-02-26T02:47:26.357Z,58.07
2023-02-26T02:50:08.087Z,58.75
2023-02-26T02:53:07.853Z,59.14
2023-02-26T02:55:38.919Z,59.12
2023-02-26T02:58:11.617Z,59.13
2023-02-26T03:00:44.453Z,59.11
2023-02-26T03:03:26.531Z,59.38
2023-02-26T03:05:53.444Z,59.24
2023-02-26T03:08:24.866Z,59.25
2023-02-26T03:10:51.491Z,59.49
2023-02-26T03:13:21.147Z,59.49
2023-02-26T03:16:20.080Z,59.07
2023-02-26T03:19:36.391Z,58.80
2023-02-26T03:22:28.782Z,59.20
2023-02-26T03:25:07.839Z,59.32
2023-02-26T03:27:34.412Z,59.21
2023-02-26T03:30:10.913Z,59.21
2023-02-26T03:32:47.678Z,59.28
2023-02-26T03:35:26.848Z,59.74
2023-02-26T03:37:59.549Z,59.47
2023-02-26T03:40:35.433Z,59.42
2023-02-26T03:43:10.766Z,59.57
2023-02-26T03:45:41.270Z,59.87
2023-02-26T03:48:11.161Z,59.86
2023-02-26T03:50:45.359Z,59.55
2023-02-26T03:53:17.546Z,59.98
2023-02-26T03:56:02.750Z,60.12
2023-02-26T03:58:29.475Z,59.78
2023-02-26T04:01:02.236Z,59.64
2023-02-26T04:03:43.312Z,59.52
2023-02-26T04:06:10.608Z,59.37
2023-02-26T04:08:37.516Z,59.99
2023-02-26T04:11:10.049Z,60.04
2023-02-26T04:13:37.253Z,59.51
2023-02-26T04:16:04.703Z,59.81
2023-02-26T04:18:31.549Z,59.44
2023-02-26T04:20:58.206Z,59.94
2023-02-26T04:23:24.765Z,59.56
2023-02-26T04:25:51.778Z,59.42
2023-02-26T04:28:18.456Z,59.22
2023-02-26T04:30:45.211Z,59.39
2023-02-26T04:33:13.217Z,59.57
2023-02-26T04:35:39.967Z,59.55
2023-02-26T04:38:06.647Z,59.34
2023-02-26T04:40:33.404Z,59.50
2023-02-26T04:42:59.947Z,59.41
2023-02-26T04:45:26.668Z,59.39
2023-02-26T04:47:53.661Z,59.46
2023-02-26T04:50:20.285Z,59.02
2023-02-26T04:52:46.825Z,58.99
2023-02-26T04:55:13.401Z,59.04
2023-02-26T04:57:40.030Z,59.11
2023-02-26T05:00:09.998Z,58.87
2023-02-26T05:02:37.114Z,58.38
2023-02-26T05:05:03.933Z,58.53
2023-02-26T05:07:30.652Z,58.44
2023-02-26T05:09:57.537Z,58.42
2023-02-26T05:12:24.342Z,58.48
2023-02-26T05:14:50.886Z,58.21
2023-02-26T05:17:17.871Z,58.36
2023-02-26T05:19:44.577Z,58.21
2023-02-26T05:22:11.164Z,58.27
2023-02-26T05:24:37.835Z,58.30
2023-02-26T05:27:04.623Z,58.42
2023-02-26T05:29:31.311Z,58.46
2023-02-26T05:31:58.072Z,58.52
2023-02-26T05:34:24.688Z,58.20
2023-02-26T05:36:51.330Z,57.93
2023-02-26T05:39:17.968Z,58.10
2023-02-26T05:41:46.557Z,57.79
2023-02-26T05:44:13.674Z,57.99
2023-02-26T05:46:40.402Z,57.80
2023-02-26T05:49:07.117Z,57.81
2023-02-26T05:51:33.707Z,57.61
2023-02-26T05:54:00.555Z,57.69
2023-02-26T05:56:27.333Z,57.53
2023-02-26T05:58:54.035Z,57.36
2023-02-26T06:01:20.651Z,57.44
2023-02-26T06:03:47.185Z,57.39
2023-02-26T06:06:16.287Z,57.14
2023-02-26T06:08:42.821Z,57.03
2023-02-26T06:11:09.605Z,56.79
2023-02-26T06:13:36.376Z,56.67
2023-02-26T06:16:03.098Z,56.62
2023-02-26T06:18:29.773Z,56.30
2023-02-26T06:20:56.363Z,56.10
2023-02-26T06:23:23.082Z,55.77
2023-02-26T06:25:53.085Z,55.85
2023-02-26T06:28:20.208Z,55.70
2023-02-26T06:30:47.133Z,55.53
2023-02-26T06:33:13.817Z,55.29
2023-02-26T06:35:40.477Z,55.13
2023-02-26T06:38:07.048Z,55.16
2023-02-26T06:40:33.644Z,54.83
2023-02-26T06:43:00.358Z,54.86
2023-02-26T06:45:27.044Z,54.83
2023-02-26T06:47:54.247Z,54.58
2023-02-26T06:50:21.027Z,54.59
2023-02-26T06:52:47.739Z,54.39
2023-02-26T06:55:14.413Z,54.33
2023-02-26T06:57:40.952Z,54.16
2023-02-26T07:00:09.395Z,54.04
2023-02-26T07:02:36.438Z,53.80
2023-02-26T07:05:03.185Z,53.73
2023-02-26T07:07:30.207Z,53.62
2023-02-26T07:09:56.803Z,53.79
2023-02-26T07:12:23.427Z,53.65
2023-02-26T07:14:50.179Z,53.43
2023-02-26T07:17:20.830Z,53.07
2023-02-26T07:19:48.501Z,53.37
2023-02-26T07:22:15.514Z,53.07
2023-02-26T07:24:42.891Z,52.99
2023-02-26T07:27:10.674Z,52.73
2023-02-26T07:29:37.530Z,52.48
2023-02-26T07:32:05.271Z,52.61
2023-02-26T07:34:32.238Z,52.80
2023-02-26T07:36:59.276Z,52.80
2023-02-26T07:39:27.558Z,52.89
2023-02-26T07:41:54.870Z,52.89
2023-02-26T07:44:21.522Z,52.98
2023-02-26T07:46:48.170Z,52.37
2023-02-26T07:49:14.896Z,52.27
2023-02-26T07:51:45.777Z,52.32
2023-02-26T07:54:14.016Z,52.42
2023-02-26T07:56:42.896Z,52.14
2023-02-26T07:59:09.930Z,52.18
2023-02-26T08:01:36.991Z,52.39
2023-02-26T08:04:04.267Z,52.45
2023-02-26T08:06:31.079Z,52.16
2023-02-26T08:08:57.922Z,52.54
2023-02-26T08:11:24.599Z,52.69
2023-02-26T08:13:51.204Z,52.44
2023-02-26T08:16:17.896Z,52.92
2023-02-26T08:18:44.530Z,52.81
2023-02-26T08:21:11.828Z,52.79
2023-02-26T08:23:38.599Z,52.79
2023-02-26T08:26:10.496Z,52.90
2023-02-26T08:28:37.628Z,52.79
2023-02-26T08:31:04.951Z,52.67
2023-02-26T08:33:32.948Z,52.91
2023-02-26T08:36:01.794Z,52.77
2023-02-26T08:38:29.730Z,52.83
2023-02-26T08:40:56.774Z,52.90
2023-02-26T08:43:23.590Z,52.61
2023-02-26T08:45:56.498Z,52.30
2023-02-26T08:48:24.177Z,52.43
2023-02-26T08:50:51.397Z,52.17
2023-02-26T08:53:18.121Z,52.44
2023-02-26T08:55:49.093Z,52.70
2023-02-26T08:58:15.921Z,52.88
2023-02-26T09:00:42.466Z,52.67
2023-02-26T09:03:09.131Z,52.75
2023-02-26T09:05:35.753Z,52.78
2023-02-26T09:08:02.444Z,52.82
2023-02-26T09:10:29.336Z,52.42
2023-02-26T09:12:55.996Z,52.17
2023-02-26T09:15:22.720Z,52.03
2023-02-26T09:17:49.369Z,51.78
2023-02-26T09:20:16.407Z,51.96
2023-02-26T09:22:43.412Z,51.33
2023-02-26T09:25:10.713Z,51.07
2023-02-26T09:27:37.553Z,50.74
2023-02-26T09:30:05.571Z,50.41
2023-02-26T09:32:32.388Z,50.21
2023-02-26T09:34:59.279Z,50.01
2023-02-26T09:37:25.955Z,50.21
2023-02-26T09:39:54.810Z,50.13
2023-02-26T09:42:33.774Z,50.44
2023-02-26T09:45:00.769Z,50.09
2023-02-26T09:47:31.283Z,50.11
2023-02-26T09:50:11.623Z,50.28
2023-02-26T09:53:11.996Z,50.49
2023-02-26T09:55:45.193Z,50.79
2023-02-26T09:58:19.193Z,50.67
2023-02-26T10:00:51.656Z,50.66
2023-02-26T10:03:44.585Z,50.79
2023-02-26T10:06:23.543Z,50.63
2023-02-26T10:09:16.499Z,50.74
2023-02-26T10:11:55.979Z,50.94
2023-02-26T10:14:44.306Z,50.81
2023-02-26T10:17:19.542Z,50.70
2023-02-26T10:19:51.507Z,50.95
2023-02-26T10:22:30.073Z,50.83
2023-02-26T10:25:21.645Z,50.58
2023-02-26T10:28:10.838Z,50.71
2023-02-26T10:30:44.918Z,51.01
2023-02-26T10:33:20.669Z,51.02
2023-02-26T10:36:02.493Z,51.37
2023-02-26T10:38:31.876Z,51.06
2023-02-26T10:41:05.947Z,51.11
2023-02-26T10:43:39.337Z,51.12
2023-02-26T10:46:27.584Z,51.32
2023-02-26T10:49:36.656Z,51.21
2023-02-26T10:52:16.025Z,51.42
2023-02-26T10:54:58.188Z,51.85
2023-02-26T10:57:30.097Z,51.65
2023-02-26T10:59:56.614Z,51.99
2023-02-26T11:02:56.640Z,52.20
2023-02-26T11:05:29.661Z,51.85
2023-02-26T11:08:00.979Z,51.81
2023-02-26T11:10:39.709Z,52.12
2023-02-26T11:13:06.458Z,51.86
2023-02-26T11:15:33.126Z,51.91
2023-02-26T11:18:01.685Z,52.14
2023-02-26T11:20:42.141Z,52.17
2023-02-26T11:23:13.751Z,52.70
2023-02-26T11:25:40.594Z,52.53
2023-02-26T11:28:19.985Z,52.93
2023-02-26T11:30:49.182Z,53.24
2023-02-26T11:33:21.573Z,53.05
2023-02-26T11:35:48.897Z,53.50
2023-02-26T11:38:21.527Z,53.74
2023-02-26T11:40:52.664Z,54.06
2023-02-26T11:43:21.990Z,54.08
2023-02-26T11:45:54.157Z,54.21
2023-02-26T11:48:32.241Z,54.20
2023-02-26T11:51:01.978Z,54.14
2023-02-26T11:53:35.645Z,54.64
2023-02-26T11:56:13.813Z,54.62
2023-02-26T11:58:43.405Z,55.01
2023-02-26T12:01:12.825Z,55.29
2023-02-26T12:03:43.466Z,55.13
2023-02-26T12:06:17.941Z,54.90
2023-02-26T12:08:45.263Z,55.20
2023-02-26T12:11:30.472Z,55.05
2023-02-26T12:14:33.605Z,55.03
2023-02-26T12:17:18.302Z,54.89
2023-02-26T12:20:21.893Z,55.21
2023-02-26T12:23:26.299Z,55.93
2023-02-26T12:26:19.340Z,56.27
2023-02-26T12:29:03.154Z,56.23
2023-02-26T12:31:44.447Z,56.33
2023-02-26T12:34:36.107Z,56.71
2023-02-26T12:37:21.112Z,56.33
2023-02-26T12:40:30.834Z,56.45
2023-02-26T12:43:11.306Z,56.15
2023-02-26T12:45:57.558Z,56.00
2023-02-26T12:48:58.910Z,55.37
2023-02-26T12:51:47.260Z,55.09
2023-02-26T12:54:36.651Z,55.26
2023-02-26T12:57:27.596Z,55.02
2023-02-26T13:00:23.203Z,55.69
2023-02-26T13:03:17.986Z,55.24
2023-02-26T13:06:18.616Z,54.81
2023-02-26T13:09:20.497Z,55.44
2023-02-26T13:11:59.235Z,55.29
2023-02-26T13:14:38.321Z,55.32
2023-02-26T13:17:27.214Z,55.50
2023-02-26T13:20:01.602Z,56.30
2023-02-26T13:22:36.830Z,56.72
2023-02-26T13:25:16.568Z,56.67
2023-02-26T13:27:45.198Z,56.56
2023-02-26T13:30:23.823Z,55.99
2023-02-26T13:32:58.382Z,56.30
2023-02-26T13:35:38.189Z,56.32
2023-02-26T13:38:26.659Z,56.27
2023-02-26T13:41:11.802Z,56.18
2023-02-26T13:43:50.620Z,55.56
2023-02-26T13:46:26.724Z,56.01
2023-02-26T13:49:11.497Z,55.98
2023-02-26T13:51:38.160Z,56.03
2023-02-26T13:54:17.367Z,56.68
2023-02-26T13:56:47.074Z,57.10
2023-02-26T13:59:14.671Z,56.94
2023-02-26T14:02:22.661Z,56.61
2023-02-26T14:05:06.726Z,55.94
2023-02-26T14:07:56.210Z,56.34
2023-02-26T14:10:36.144Z,55.79
2023-02-26T14:13:18.881Z,55.46
2023-02-26T14:16:12.695Z,55.77
2023-02-26T14:18:51.539Z,55.16
2023-02-26T14:21:37.265Z,56.05
2023-02-26T14:24:13.529Z,56.08
2023-02-26T14:26:45.566Z,56.68
2023-02-26T14:29:16.832Z,56.38
2023-02-26T14:31:54.416Z,56.42
2023-02-26T14:34:26.287Z,56.91
2023-02-26T14:37:02.883Z,57.59
2023-02-26T14:39:35.125Z,57.31
2023-02-26T14:42:10.228Z,57.57
2023-02-26T14:44:41.889Z,57.61
2023-02-26T14:47:09.794Z,57.87
2023-02-26T14:49:39.550Z,58.02
2023-02-26T14:52:33.840Z,58.28
2023-02-26T14:55:09.321Z,58.55
2023-02-26T14:57:49.326Z,58.91
2023-02-26T15:00:25.306Z,57.88
2023-02-26T15:03:13.631Z,57.74
2023-02-26T15:06:13.614Z,57.80
2023-02-26T15:09:06.460Z,58.44
2023-02-26T15:11:48.320Z,59.08
2023-02-26T15:14:51.661Z,58.64
2023-02-26T15:17:40.651Z,57.96
2023-02-26T15:20:33.253Z,58.34
2023-02-26T15:23:24.154Z,58.43
2023-02-26T15:25:51.290Z,58.64
2023-02-26T15:28:28.947Z,57.73
2023-02-26T15:30:57.299Z,57.69
2023-02-26T15:33:25.697Z,57.38
2023-02-26T15:35:54.721Z,58.42
2023-02-26T15:38:21.613Z,58.60
2023-02-26T15:40:50.865Z,58.65
2023-02-26T15:43:27.085Z,58.51
2023-02-26T15:45:58.835Z,58.63
2023-02-26T15:48:32.564Z,58.90
2023-02-26T15:51:02.730Z,59.55
2023-02-26T15:53:43.555Z,59.64
2023-02-26T15:56:22.072Z,60.45
2023-02-26T15:58:55.621Z,61.16
2023-02-26T16:01:28.082Z,61.72
2023-02-26T16:03:58.466Z,62.03
2023-02-26T16:06:30.328Z,60.53
2023-02-26T16:08:58.161Z,60.66
2023-02-26T16:11:29.612Z,62.14
2023-02-26T16:13:57.109Z,61.77
2023-02-26T16:16:35.117Z,62.21
2023-02-26T16:19:01.816Z,61.29
2023-02-26T16:21:36.598Z,61.51
2023-02-26T16:24:07.161Z,62.21
2023-02-26T16:26:43.481Z,61.95
2023-02-26T16:29:21.021Z,62.51
2023-02-26T16:31:58.497Z,63.59
2023-02-26T16:34:37.195Z,63.84
2023-02-26T16:37:34.245Z,64.05
2023-02-26T16:40:33.759Z,64.17
2023-02-26T16:43:03.730Z,63.87
2023-02-26T16:45:36.494Z,63.68
2023-02-26T16:48:27.774Z,62.33
2023-02-26T16:51:20.634Z,62.94
2023-02-26T16:53:55.280Z,63.52
2023-02-26T16:56:34.642Z,63.89
2023-02-26T16:59:21.510Z,64.09
2023-02-26T17:02:24.761Z,64.15
2023-02-26T17:04:57.791Z,63.92
2023-02-26T17:07:33.365Z,63.94
2023-02-26T17:10:16.781Z,62.38
2023-02-26T17:12:52.892Z,63.10
2023-02-26T17:15:21.383Z,63.01
2023-02-26T17:17:48.601Z,63.19
2023-02-26T17:20:15.257Z,63.21
2023-02-26T17:22:44.039Z,63.99
2023-02-26T17:25:19.333Z,64.09
2023-02-26T17:27:46.763Z,64.32
2023-02-26T17:30:18.764Z,64.51
2023-02-26T17:32:45.379Z,63.99
2023-02-26T17:35:14.275Z,63.92
2023-02-26T17:37:41.053Z,64.19
2023-02-26T17:40:45.344Z,64.66
2023-02-26T17:43:11.899Z,64.93
2023-02-26T17:45:40.571Z,65.17
2023-02-26T17:48:08.343Z,64.75
2023-02-26T17:50:40.736Z,64.84
2023-02-26T17:53:08.219Z,65.11
2023-02-26T17:55:37.427Z,65.16
2023-02-26T17:58:04.210Z,65.68
2023-02-26T18:00:31.453Z,65.95
2023-02-26T18:02:58.183Z,66.40
2023-02-26T18:05:27.678Z,66.61
2023-02-26T18:07:54.254Z,67.00
2023-02-26T18:10:24.956Z,66.93
2023-02-26T18:12:51.732Z,66.45
2023-02-26T18:15:18.312Z,65.71
2023-02-26T18:17:44.937Z,65.27
2023-02-26T18:20:22.481Z,65.27
2023-02-26T18:22:50.531Z,65.54
2023-02-26T18:25:17.532Z,65.96
2023-02-26T18:27:45.235Z,65.99
2023-02-26T18:30:24.340Z,66.19
2023-02-26T18:32:51.356Z,66.19
2023-02-26T18:35:18.217Z,66.11
2023-02-26T18:37:45.499Z,66.57
2023-02-26T18:40:18.070Z,66.92
2023-02-26T18:42:44.755Z,67.69
2023-02-26T18:45:11.749Z,68.33
2023-02-26T18:47:39.376Z,68.47
2023-02-26T18:50:07.610Z,69.28
2023-02-26T18:52:34.802Z,69.23
2023-02-26T18:55:03.148Z,69.70
2023-02-26T18:57:30.617Z,69.48
2023-02-26T18:59:57.603Z,70.27
2023-02-26T19:02:24.805Z,70.66
2023-02-26T19:04:51.971Z,71.17
2023-02-26T19:07:18.885Z,70.77
2023-02-26T19:09:45.738Z,71.17
2023-02-26T19:12:18.725Z,71.61
2023-02-26T19:14:45.617Z,72.08
2023-02-26T19:17:12.140Z,72.42
2023-02-26T19:19:41.076Z,73.41
2023-02-26T19:22:13.931Z,73.16
2023-02-26T19:24:41.979Z,73.61
2023-02-26T19:27:09.948Z,74.43
2023-02-26T19:29:37.438Z,73.71
2023-02-26T19:32:04.674Z,74.26
2023-02-26T19:34:31.869Z,75.35
2023-02-26T19:36:58.784Z,74.77
2023-02-26T19:39:26.760Z,75.30
2023-02-26T19:41:54.484Z,75.80
2023-02-26T19:44:22.756Z,77.32
2023-02-26T19:46:49.486Z,76.73
2023-02-26T19:49:16.753Z,77.10
2023-02-26T19:51:43.883Z,77.52
2023-02-26T19:54:12.638Z,78.16
2023-02-26T19:56:39.652Z,77.90
2023-02-26T19:59:06.394Z,78.31
2023-02-26T20:01:33.194Z,77.57
2023-02-26T20:04:01.098Z,77.31
2023-02-26T20:06:29.003Z,77.73
2023-02-26T20:08:55.587Z,77.04
2023-02-26T20:11:22.358Z,76.64
2023-02-26T20:13:49.084Z,76.54
2023-02-26T20:16:16.505Z,75.96
2023-02-26T20:18:45.744Z,76.06
2023-02-26T20:21:13.008Z,75.95
2023-02-26T20:23:40.356Z,76.04
2023-02-26T20:26:13.274Z,76.19
2023-02-26T20:28:41.243Z,76.36
2023-02-26T20:31:08.362Z,76.74
2023-02-26T20:33:37.378Z,77.27
2023-02-26T20:36:04.520Z,77.25
2023-02-26T20:38:31.316Z,77.40
2023-02-26T20:40:58.145Z,77.26
2023-02-26T20:43:25.199Z,78.26
2023-02-26T20:45:54.035Z,78.55
2023-02-26T20:48:21.117Z,77.29
2023-02-26T20:50:48.154Z,77.26
2023-02-26T20:53:14.880Z,77.17
2023-02-26T20:55:41.478Z,76.37
2023-02-26T20:58:08.158Z,76.19
2023-02-26T21:00:34.742Z,76.29
2023-02-26T21:03:01.325Z,76.87
2023-02-26T21:05:28.043Z,78.23
2023-02-26T21:07:54.718Z,77.86
2023-02-26T21:10:21.367Z,77.69
2023-02-26T21:12:48.219Z,77.87
2023-02-26T21:15:15.003Z,77.35
2023-02-26T21:17:42.900Z,77.82
2023-02-26T21:20:12.699Z,76.45
2023-02-26T21:22:39.994Z,75.24
2023-02-26T21:25:07.590Z,75.83
2023-02-26T21:27:35.141Z,76.51
2023-02-26T21:30:02.101Z,76.94
2023-02-26T21:32:28.770Z,77.33
2023-02-26T21:34:55.841Z,77.52
2023-02-26T21:37:22.450Z,77.56
2023-02-26T21:39:49.139Z,77.67
2023-02-26T21:42:16.087Z,78.16
2023-02-26T21:44:42.926Z,78.36
2023-02-26T21:47:10.414Z,78.24
2023-02-26T21:49:37.592Z,78.21
2023-02-26T21:52:06.259Z,78.41
2023-02-26T21:54:33.239Z,78.06
2023-02-26T21:56:59.838Z,77.43
2023-02-26T21:59:26.693Z,78.32
2023-02-26T22:01:53.642Z,78.43
2023-02-26T22:04:20.569Z,79.00
2023-02-26T22:06:47.284Z,78.86
2023-02-26T22:09:13.930Z,76.90
2023-02-26T22:11:40.559Z,78.80
2023-02-26T22:14:07.385Z,78.32
2023-02-26T22:16:34.070Z,78.24
2023-02-26T22:19:00.779Z,78.71
2023-02-26T22:21:27.660Z,77.93
2023-02-26T22:23:54.527Z,78.89
2023-02-26T22:26:21.341Z,77.89
2023-02-26T22:28:47.954Z,76.92
2023-02-26T22:31:14.958Z,78.91
2023-02-26T22:33:41.700Z,78.28
2023-02-26T22:36:08.487Z,77.90
2023-02-26T22:38:35.233Z,78.71
2023-02-26T22:41:01.846Z,79.14
2023-02-26T22:43:28.890Z,79.34
2023-02-26T22:45:55.673Z,80.13
2023-02-26T22:48:22.306Z,80.00
2023-02-26T22:50:50.277Z,78.84
2023-02-26T22:53:17.166Z,78.10
2023-02-26T22:55:43.896Z,77.96
2023-02-26T22:58:10.552Z,80.19
2023-02-26T23:00:37.120Z,80.00
2023-02-26T23:03:03.804Z,80.04
2023-02-26T23:05:30.345Z,78.77
2023-02-26T23:07:56.869Z,78.35
2023-02-26T23:10:23.499Z,79.61
2023-02-26T23:12:50.247Z,81.49
2023-02-26T23:15:16.990Z,82.15
2023-02-26T23:17:43.616Z,82.30
2023-02-26T23:20:13.988Z,82.49
2023-02-26T23:22:43.775Z,81.79
2023-02-26T23:25:12.248Z,82.81
2023-02-26T23:27:39.120Z,83.48
2023-02-26T23:30:06.213Z,84.25
2023-02-26T23:32:32.949Z,83.39
2023-02-26T23:34:59.819Z,82.73
2023-02-26T23:37:26.394Z,83.30
2023-02-26T23:39:53.245Z,83.24
2023-02-26T23:42:19.846Z,83.01
2023-02-26T23:44:46.579Z,82.35
2023-02-26T23:47:13.432Z,81.76
2023-02-26T23:49:40.032Z,83.13
2023-02-26T23:52:06.575Z,83.26
2023-02-26T23:54:33.818Z,83.62
2023-02-26T23:57:00.630Z,84.18
2023-02-26T23:59:27.253Z,83.97
